Kezdőlap
METAR-TAF:

METAR-TAF

Repülőterek :

Waupaca Municipal Airport

Waupaca, Wisconsin, Amerikai Egyesült Államok

földrajzi szélesség: 44-20-01N, földrajzi hosszúság: 089-00-55W, magasság: 252 m

Jelenlegi meteorológiai megfigyelések

A jelentés 14 perccel ezelõtt készült, 00:15 UTC
Észak-északnyugati szél 7 kt
Hőmérséklet 9°C
Páratartalom 93%
Légköri nyomás 1005 hPa
Látótávolság: 4.0 km
Szakadozott felhőzet 600 lábon
Szakadozott felhőzet 1200 lábon
Borult 1700 lábon
Párásság

METAR: KPCZ 200015Z AUTO 33007KT 2 1/2SM BR BKN006 BKN012 OVC017 09/08 A2968 RMK AO2 VIS 1 3/4V3 T00900081

Idő: 19:29 (00:29 UTC)


TAF: hiányzik

Meteorológiai megfigyelések és előrejelzések több, mint 4000 repülőtéren (METAR és TAF jelentéseket).

A térképen piros és sárga pontok jelzik az elérhető meteorológiai állomásokat.

Mozgassa az egeret a pont fölött, hogy megjelenjen az állomás neve.

Azután kattintson az időjárási megfigyelések és előrejelzések megtekintéséhez.

A térkép megváltoztatása: kattintson a fekete keresztel jelölt zöld gombra ráközelítéshez, a vonallal jelölt zöld gombra távolításhoz, vagy a zöld nyilakra a szomszédos térképek eléréséhez.


METAR-TAF: